This is the latest recevied weather packets stored in our database for station/object WX4SGA. If no packets are shown the sender has not sent any weather packets the latest 10 day(s).
| Time | Temp. | Humidity | Pressure | Rain* | Wind** | Luminosity | Snow |
|---|---|---|---|---|---|---|---|
| 1778283720 | 18.33° C | 98% | 1016.3 hPa | 1.78 mm | - | 1 W/m² | - |
| 1778283420 | 18.33° C | 98% | 1016.3 hPa | 1.78 mm | - | 1 W/m² | - |
| 1778283117 | 18.89° C | 98% | 1016.9 hPa | 1.78 mm | - | 1 W/m² | - |
| 1778282814 | 18.89° C | 97% | 1016.6 hPa | 1.27 mm | - | 1 W/m² | - |
| 1778282511 | 18.89° C | 97% | 1016.6 hPa | 1.27 mm | - | 2 W/m² | - |
| 1778282209 | 18.89° C | 95% | 1016.3 hPa | 1.78 mm | - | 1 W/m² | - |
| 1778281905 | 18.89° C | 95% | 1015.6 hPa | 0 mm | - | 2 W/m² | - |
| 1778281602 | 18.89° C | 95% | 1015.6 hPa | 1.78 mm | - | 2 W/m² | - |
| 1778281298 | 18.89° C | 94% | 1016.3 hPa | 3.05 mm | - | 3 W/m² | - |
| 1778280997 | 18.89° C | 93% | 1016.3 hPa | 1.78 mm | - | 2 W/m² | - |
| 1778280692 | 19.44° C | 94% | 1016.6 hPa | 3.05 mm | - | 3 W/m² | - |
| 1778280390 | 20° C | 90% | 1016.3 hPa | 7.87 mm | - | 3 W/m² | - |
| 1778280088 | 21.11° C | 84% | 1015.9 hPa | 4.83 mm | - | 4 W/m² | - |
| 1778279785 | 21.67° C | 77% | 1016.6 hPa | 0 mm | - | 2 W/m² | - |
| 1778279482 | 21.67° C | 77% | 1015.9 hPa | 0 mm | - | 2 W/m² | - |
| 1778279180 | 21.67° C | 78% | 1014.6 hPa | 0 mm | - | 5 W/m² | - |
| 1778278877 | 21.67° C | 76% | 1014.2 hPa | 0 mm | - | 9 W/m² | - |
| 1778278573 | 22.22° C | 75% | 1014.2 hPa | 0 mm | - | 13 W/m² | - |
| 1778278269 | 22.22° C | 74% | 1014.2 hPa | 0 mm | - | 18 W/m² | - |
| 1778277965 | 22.22° C | 73% | 1014.2 hPa | 0 mm | - | 26 W/m² | - |
| 1778277661 | 22.22° C | 75% | 1014.2 hPa | 0 mm | - | 35 W/m² | - |
| 1778277359 | 22.78° C | 74% | 1014.2 hPa | 0 mm | - | 52 W/m² | - |
| 1778277055 | 22.78° C | 73% | 1014.2 hPa | 0 mm | - | 88 W/m² | - |
| 1778276753 | 22.78° C | 75% | 1014.6 hPa | 0 mm | - | 63 W/m² | - |
| 1778276449 | 22.78° C | 74% | 1014.6 hPa | 0 mm | - | 56 W/m² | - |
* Rain latest hour (hover to see other rain measurements)
** Current wind speed in m/s (hover to see current wind gust speed)